Time;durP1;ratioP1;P1;durP2;ratioP2;P2;SDS_P1;SDS_P2;PMS_P1;PMS_P2;Temp;Humidity;BMP_temperature;BMP_pressure;BME280_temperature;BME280_humidity;BME280_pressure;Samples;Min_cycle;Max_cycle;Signal;HPM_P1;HPM_P2
2023/09/05 00:03:08;;;;;;;9.70;3.70;;;;;;;;;;104064;1286;545089;-76
2023/09/05 00:06:46;;;;;;;10.90;3.80;;;;;;;;;;103842;1292;544961;-77
2023/09/05 00:10:24;;;;;;;8.30;3.60;;;;;;;;;;103835;1290;544862;-74
2023/09/05 00:14:00;;;;;;;9.10;3.80;;;;;;;;;;103778;1289;545622;-75
2023/09/05 00:17:43;;;;;;;10.40;3.90;;;;;;;;;;103774;1291;547964;-81
2023/09/05 00:21:18;;;;;;;10.10;3.70;;;;;;;;;;103724;1291;545068;-78
2023/09/05 00:24:53;;;;;;;7.70;3.60;;;;;;;;;;104020;1290;544708;-77
2023/09/05 00:28:50;;;;;;;8.50;3.70;;;;;;;;;;103633;1292;547953;-75
2023/09/05 00:32:09;;;;;;;7.10;3.30;;;;;;;;;;103725;1291;545061;-77
2023/09/05 00:35:45;;;;;;;7.40;3.30;;;;;;;;;;103757;1291;545045;-74
2023/09/05 00:39:24;;;;;;;7.60;3.40;;;;;;;;;;104044;1289;545877;-75
2023/09/05 00:43:06;;;;;;;9.10;3.70;;;;;;;;;;103481;1291;547808;-77
2023/09/05 00:46:38;;;;;;;7.60;3.40;;;;;;;;;;103633;1293;546462;-77
2023/09/05 00:50:18;;;;;;;8.80;3.60;;;;;;;;;;103774;1289;545234;-78
2023/09/05 00:53:52;;;;;;;8.00;3.10;;;;;;;;;;103824;1291;545486;-74
2023/09/05 00:57:30;;;;;;;8.80;3.60;;;;;;;;;;103752;1289;545447;-77
2023/09/05 01:01:03;;;;;;;7.30;3.60;;;;;;;;;;103954;1288;544839;-80
2023/09/05 01:04:45;;;;;;;6.70;3.40;;;;;;;;;;103774;1289;545186;-75
2023/09/05 01:08:26;;;;;;;7.90;3.40;;;;;;;;;;103745;1292;545057;-75
2023/09/05 01:12:01;;;;;;;7.30;3.00;;;;;;;;;;103738;1292;544933;-77
2023/09/05 01:15:38;;;;;;;6.50;3.40;;;;;;;;;;103770;1291;545904;-77
2023/09/05 01:19:17;;;;;;;7.40;3.30;;;;;;;;;;103764;1289;544800;-77
2023/09/05 01:23:02;;;;;;;9.80;3.60;;;;;;;;;;103788;1292;544946;-74
2023/09/05 01:26:30;;;;;;;7.30;3.00;;;;;;;;;;103767;1290;545234;-75
2023/09/05 01:30:14;;;;;;;6.80;3.00;;;;;;;;;;103602;1291;548203;-77
2023/09/05 01:33:45;;;;;;;7.70;3.60;;;;;;;;;;103793;1295;544791;-74
2023/09/05 01:37:23;;;;;;;8.40;3.50;;;;;;;;;;103724;1295;545624;-75
2023/09/05 01:41:01;;;;;;;6.00;3.40;;;;;;;;;;104017;1291;544909;-75
2023/09/05 01:44:38;;;;;;;8.40;3.30;;;;;;;;;;103765;1290;544774;-75
2023/09/05 01:48:15;;;;;;;8.60;3.80;;;;;;;;;;104185;1288;545115;-74
2023/09/05 01:51:53;;;;;;;7.50;3.40;;;;;;;;;;103737;1290;545045;-74
2023/09/05 01:55:30;;;;;;;8.10;3.80;;;;;;;;;;103800;1301;544930;-80
2023/09/05 01:59:08;;;;;;;8.60;3.90;;;;;;;;;;104022;1291;544992;-75
2023/09/05 02:02:45;;;;;;;8.00;3.70;;;;;;;;;;103641;1291;545550;-75
2023/09/05 02:06:23;;;;;;;7.20;3.70;;;;;;;;;;103504;1297;545459;-76
2023/09/05 02:10:00;;;;;;;7.40;3.50;;;;;;;;;;103649;1292;544752;-77
2023/09/05 02:13:38;;;;;;;8.60;3.90;;;;;;;;;;103835;1296;544714;-74
2023/09/05 02:17:20;;;;;;;10.40;4.10;;;;;;;;;;104134;1289;545758;-75
2023/09/05 02:20:57;;;;;;;9.90;4.70;;;;;;;;;;103811;1295;545392;-75
2023/09/05 02:25:01;;;;;;;11.40;4.70;;;;;;;;;;104453;1285;547948;-80
2023/09/05 02:28:30;;;;;;;12.40;5.60;;;;;;;;;;104440;1285;546243;-80
2023/09/05 02:31:45;;;;;;;10.50;5.50;;;;;;;;;;103778;1292;545173;-74
2023/09/05 02:35:23;;;;;;;9.10;4.90;;;;;;;;;;103994;1289;545488;-75
2023/09/05 02:38:59;;;;;;;9.10;4.80;;;;;;;;;;103701;1290;544930;-75
2023/09/05 02:42:38;;;;;;;9.90;4.90;;;;;;;;;;103806;1290;545240;-74
2023/09/05 02:46:18;;;;;;;9.30;4.90;;;;;;;;;;103517;1291;548987;-74
2023/09/05 02:49:52;;;;;;;10.40;5.00;;;;;;;;;;103730;1291;544773;-75
2023/09/05 02:53:28;;;;;;;9.40;5.10;;;;;;;;;;103743;1292;545244;-78
2023/09/05 02:57:07;;;;;;;10.00;4.70;;;;;;;;;;103721;1292;545815;-75
2023/09/05 03:00:47;;;;;;;11.00;5.00;;;;;;;;;;103808;1292;544943;-75
2023/09/05 03:04:18;;;;;;;11.50;5.10;;;;;;;;;;103844;1289;545920;-79
2023/09/05 03:08:09;;;;;;;10.70;5.10;;;;;;;;;;104155;1285;547786;-77
2023/09/05 03:11:39;;;;;;;9.30;4.50;;;;;;;;;;103975;1289;545503;-79
2023/09/05 03:15:18;;;;;;;11.60;5.10;;;;;;;;;;104013;1289;544915;-74
2023/09/05 03:19:01;;;;;;;10.80;5.10;;;;;;;;;;103713;1290;547957;-77
2023/09/05 03:22:33;;;;;;;10.50;4.90;;;;;;;;;;103591;1292;544800;-74
2023/09/05 03:26:08;;;;;;;9.90;4.50;;;;;;;;;;103703;1292;545248;-75
2023/09/05 03:29:45;;;;;;;8.10;4.40;;;;;;;;;;103829;1288;545329;-78
2023/09/05 03:33:23;;;;;;;9.90;4.30;;;;;;;;;;103929;1288;544946;-77
2023/09/05 03:37:01;;;;;;;9.70;5.00;;;;;;;;;;104222;1289;545005;-76
2023/09/05 03:40:38;;;;;;;10.20;4.70;;;;;;;;;;104298;1286;545942;-76
2023/09/05 03:44:16;;;;;;;12.70;6.00;;;;;;;;;;103769;1291;545535;-78
2023/09/05 03:47:53;;;;;;;11.70;6.30;;;;;;;;;;103726;1291;545740;-77
2023/09/05 04:01:53;;;;;;;14.10;6.40;;;;;;;;;;104504;1283;549788;-76
2023/09/05 04:04:45;;;;;;;14.00;5.90;;;;;;;;;;103744;1295;545051;-79
2023/09/05 04:08:23;;;;;;;12.60;6.20;;;;;;;;;;103703;1291;544923;-74
2023/09/05 04:22:24;;;;;;;8.60;3.70;;;;;;;;;;104677;1284;549644;-75
2023/09/05 04:25:16;;;;;;;7.90;3.90;;;;;;;;;;103780;1292;544788;-77
2023/09/05 04:28:53;;;;;;;9.00;4.10;;;;;;;;;;103707;1291;545632;-80
2023/09/05 04:32:31;;;;;;;10.30;4.00;;;;;;;;;;103791;1294;544917;-74
2023/09/05 04:36:14;;;;;;;8.40;3.90;;;;;;;;;;103424;1294;547878;-78
2023/09/05 04:39:45;;;;;;;9.00;4.30;;;;;;;;;;103876;1291;545487;-75
2023/09/05 04:43:23;;;;;;;12.10;4.50;;;;;;;;;;103779;1292;544964;-75
2023/09/05 04:47:20;;;;;;;10.20;3.70;;;;;;;;;;104380;1285;545034;-76
2023/09/05 04:50:38;;;;;;;12.40;4.40;;;;;;;;;;103832;1292;544791;-75
2023/09/05 04:54:16;;;;;;;11.60;3.90;;;;;;;;;;103735;1292;544994;-75
2023/09/05 04:57:53;;;;;;;15.00;4.30;;;;;;;;;;104080;1288;545129;-75
2023/09/05 05:01:30;;;;;;;14.60;5.30;;;;;;;;;;103807;1292;545456;-75
2023/09/05 05:05:08;;;;;;;12.70;6.00;;;;;;;;;;104613;1282;544942;-75
2023/09/05 05:08:45;;;;;;;12.40;5.20;;;;;;;;;;103801;1292;545418;-75
2023/09/05 05:12:23;;;;;;;12.90;5.10;;;;;;;;;;103759;1295;544922;-75
2023/09/05 05:16:00;;;;;;;11.10;5.00;;;;;;;;;;103935;1292;545767;-75
2023/09/05 05:19:37;;;;;;;11.20;5.10;;;;;;;;;;103773;1292;545698;-76
2023/09/05 05:23:15;;;;;;;10.20;4.70;;;;;;;;;;103702;1291;544787;-77
2023/09/05 05:26:58;;;;;;;15.10;5.10;;;;;;;;;;103637;1295;547948;-75
2023/09/05 05:30:36;;;;;;;19.30;5.50;;;;;;;;;;103639;1291;548119;-75
2023/09/05 05:34:08;;;;;;;15.50;6.20;;;;;;;;;;104024;1294;545026;-75
2023/09/05 05:37:50;;;;;;;10.00;5.10;;;;;;;;;;103568;1292;547946;-78
2023/09/05 05:41:23;;;;;;;13.90;4.60;;;;;;;;;;103730;1289;544745;-75
2023/09/05 05:45:00;;;;;;;15.30;5.20;;;;;;;;;;103724;1292;545179;-76
2023/09/05 05:48:38;;;;;;;12.00;4.80;;;;;;;;;;103677;1292;544940;-75
2023/09/05 05:52:11;;;;;;;16.80;6.20;;;;;;;;;;103817;1288;544826;-75
2023/09/05 05:55:54;;;;;;;12.40;5.70;;;;;;;;;;103783;1301;544887;-76
2023/09/05 05:59:31;;;;;;;11.50;5.50;;;;;;;;;;104003;1289;545286;-76
2023/09/05 06:03:11;;;;;;;12.50;5.80;;;;;;;;;;103822;1292;544969;-78
2023/09/05 06:06:48;;;;;;;13.90;5.60;;;;;;;;;;103770;1292;544791;-76
2023/09/05 06:10:24;;;;;;;13.00;5.60;;;;;;;;;;103752;1289;544933;-75
2023/09/05 06:14:01;;;;;;;12.10;5.50;;;;;;;;;;103759;1292;545571;-76
2023/09/05 06:17:39;;;;;;;11.20;5.80;;;;;;;;;;103758;1289;544931;-78
2023/09/05 06:21:16;;;;;;;12.90;5.70;;;;;;;;;;103695;1291;545042;-78
2023/09/05 06:24:53;;;;;;;10.90;4.90;;;;;;;;;;103738;1291;545590;-75
2023/09/05 06:28:31;;;;;;;10.30;4.70;;;;;;;;;;103807;1289;544739;-77
2023/09/05 06:32:08;;;;;;;8.50;3.80;;;;;;;;;;104039;1291;545164;-77
2023/09/05 06:35:46;;;;;;;8.40;4.00;;;;;;;;;;103792;1289;544848;-78
2023/09/05 06:39:23;;;;;;;11.60;4.70;;;;;;;;;;103744;1289;545622;-78
2023/09/05 06:43:01;;;;;;;10.00;4.40;;;;;;;;;;103824;1292;544871;-77
2023/09/05 06:46:38;;;;;;;10.50;4.40;;;;;;;;;;104127;1288;544966;-77
2023/09/05 06:50:15;;;;;;;7.50;3.50;;;;;;;;;;103761;1292;545156;-74
2023/09/05 06:53:56;;;;;;;8.30;3.30;;;;;;;;;;103643;1293;545110;-75
2023/09/05 06:57:30;;;;;;;10.30;3.30;;;;;;;;;;103727;1295;545917;-78
2023/09/05 07:01:08;;;;;;;7.50;2.70;;;;;;;;;;103722;1295;545865;-74
2023/09/05 07:04:51;;;;;;;8.40;3.50;;;;;;;;;;103602;1289;548002;-77
2023/09/05 07:08:23;;;;;;;7.50;3.40;;;;;;;;;;103787;1294;545577;-74
2023/09/05 07:12:01;;;;;;;8.30;3.10;;;;;;;;;;103706;1292;545018;-76
2023/09/05 07:15:38;;;;;;;7.00;2.90;;;;;;;;;;103790;1291;545446;-77
2023/09/05 07:19:18;;;;;;;7.10;3.30;;;;;;;;;;105688;1289;544739;-76
2023/09/05 07:22:53;;;;;;;10.20;3.20;;;;;;;;;;103764;1292;545426;-76
2023/09/05 07:26:30;;;;;;;7.60;3.20;;;;;;;;;;103507;1295;545435;-75
2023/09/05 07:30:08;;;;;;;7.00;3.40;;;;;;;;;;103688;1296;545681;-75
2023/09/05 07:33:45;;;;;;;7.90;3.40;;;;;;;;;;103704;1290;545971;-76
2023/09/05 07:37:23;;;;;;;7.40;3.30;;;;;;;;;;104083;1289;544950;-75
2023/09/05 07:41:09;;;;;;;7.40;3.00;;;;;;;;;;103239;1301;547968;-76
2023/09/05 07:44:38;;;;;;;8.20;3.00;;;;;;;;;;103639;1291;545548;-75
2023/09/05 07:48:15;;;;;;;9.90;3.20;;;;;;;;;;103757;1291;545120;-77
2023/09/05 07:51:54;;;;;;;8.90;3.50;;;;;;;;;;103781;1292;545310;-73
2023/09/05 07:55:30;;;;;;;8.00;3.40;;;;;;;;;;104383;1285;544930;-75
2023/09/05 07:59:07;;;;;;;8.20;3.50;;;;;;;;;;103640;1292;545549;-75
2023/09/05 08:02:45;;;;;;;8.10;3.40;;;;;;;;;;103813;1292;545017;-73
2023/09/05 08:06:22;;;;;;;10.10;4.00;;;;;;;;;;103770;1289;546122;-75
2023/09/05 08:10:00;;;;;;;7.80;3.60;;;;;;;;;;103871;1288;544896;-76
2023/09/05 08:13:37;;;;;;;8.40;3.30;;;;;;;;;;103761;1291;544720;-75
2023/09/05 08:17:14;;;;;;;8.80;3.40;;;;;;;;;;103726;1289;544792;-77
2023/09/05 08:20:59;;;;;;;7.50;3.20;;;;;;;;;;103737;1292;545229;-74
2023/09/05 08:24:25;;;;;;;9.10;3.40;;;;;;;;;;104059;1292;546128;-73
2023/09/05 08:28:09;;;;;;;8.30;3.40;;;;;;;;;;105188;1289;545253;-75
2023/09/05 08:31:41;;;;;;;7.20;3.20;;;;;;;;;;104327;1286;545058;-76
2023/09/05 08:35:20;;;;;;;8.70;3.10;;;;;;;;;;103959;1289;544730;-80
2023/09/05 08:39:04;;;;;;;8.50;3.60;;;;;;;;;;103633;1293;544790;-75
2023/09/05 08:42:40;;;;;;;9.30;3.50;;;;;;;;;;103920;1291;545941;-75
2023/09/05 08:46:17;;;;;;;7.20;3.10;;;;;;;;;;103937;1289;544784;-76
2023/09/05 08:49:55;;;;;;;6.90;3.10;;;;;;;;;;103656;1291;544971;-75
2023/09/05 08:53:37;;;;;;;6.80;3.10;;;;;;;;;;103741;1290;545438;-75
2023/09/05 08:57:11;;;;;;;9.20;3.10;;;;;;;;;;103868;1289;544808;-76
2023/09/05 09:00:48;;;;;;;8.00;3.00;;;;;;;;;;103744;1292;545444;-74
2023/09/05 09:04:31;;;;;;;8.20;3.10;;;;;;;;;;103651;1289;547798;-75
2023/09/05 09:08:02;;;;;;;7.50;2.80;;;;;;;;;;103924;1288;544913;-75
2023/09/05 09:11:39;;;;;;;6.90;3.10;;;;;;;;;;103909;1289;544971;-78
2023/09/05 09:15:17;;;;;;;8.60;2.70;;;;;;;;;;103729;1288;544865;-76
2023/09/05 09:19:02;;;;;;;9.90;3.00;;;;;;;;;;103714;1292;545885;-74
2023/09/05 09:22:32;;;;;;;8.30;3.40;;;;;;;;;;103713;1306;545767;-74
2023/09/05 09:26:10;;;;;;;8.80;3.30;;;;;;;;;;103700;1289;545628;-75
2023/09/05 09:29:52;;;;;;;7.50;3.40;;;;;;;;;;103797;1291;544868;-76
2023/09/05 09:33:24;;;;;;;7.60;3.40;;;;;;;;;;103808;1292;544977;-74
2023/09/05 09:37:02;;;;;;;8.30;2.90;;;;;;;;;;103592;1304;545048;-74
2023/09/05 09:40:40;;;;;;;7.20;3.00;;;;;;;;;;103809;1290;545063;-75
2023/09/05 09:44:24;;;;;;;8.00;3.40;;;;;;;;;;104021;1286;545679;-75
2023/09/05 09:47:57;;;;;;;7.80;2.90;;;;;;;;;;103885;1290;545933;-74
2023/09/05 09:51:33;;;;;;;7.40;3.10;;;;;;;;;;103755;1291;545268;-72
2023/09/05 09:55:15;;;;;;;6.40;3.10;;;;;;;;;;103920;1289;544692;-73
2023/09/05 09:58:47;;;;;;;7.80;3.00;;;;;;;;;;103600;1295;544748;-73
2023/09/05 10:02:25;;;;;;;6.40;2.90;;;;;;;;;;103731;1291;545298;-73
2023/09/05 10:06:04;;;;;;;9.60;3.50;;;;;;;;;;103774;1289;545494;-73
2023/09/05 10:09:40;;;;;;;6.20;2.90;;;;;;;;;;104085;1292;545279;-73
2023/09/05 10:13:16;;;;;;;7.60;3.40;;;;;;;;;;103665;1295;544925;-73
2023/09/05 10:16:54;;;;;;;7.10;3.00;;;;;;;;;;104017;1289;544964;-73
2023/09/05 10:20:33;;;;;;;9.20;3.30;;;;;;;;;;103627;1295;544915;-73
2023/09/05 10:24:15;;;;;;;7.80;3.30;;;;;;;;;;103533;1292;547982;-74
2023/09/05 10:27:46;;;;;;;7.70;3.10;;;;;;;;;;103708;1291;544798;-72
2023/09/05 10:31:24;;;;;;;7.20;3.10;;;;;;;;;;103694;1292;545010;-73
2023/09/05 10:35:02;;;;;;;6.50;2.80;;;;;;;;;;103611;1292;544855;-73
2023/09/05 10:38:39;;;;;;;7.40;2.90;;;;;;;;;;103910;1289;544776;-73
2023/09/05 10:42:16;;;;;;;8.10;3.00;;;;;;;;;;103733;1291;544793;-73
2023/09/05 10:45:55;;;;;;;7.50;2.90;;;;;;;;;;103697;1290;544937;-76
2023/09/05 10:49:43;;;;;;;6.20;2.70;;;;;;;;;;103614;1291;544800;-74
2023/09/05 10:53:12;;;;;;;7.30;2.90;;;;;;;;;;103738;1292;545002;-73
2023/09/05 10:56:46;;;;;;;6.30;3.30;;;;;;;;;;103727;1291;546050;-74
2023/09/05 11:00:26;;;;;;;7.90;2.90;;;;;;;;;;103686;1293;545693;-73
2023/09/05 11:04:08;;;;;;;6.90;2.90;;;;;;;;;;103669;1291;545111;-72
2023/09/05 11:07:43;;;;;;;6.30;3.20;;;;;;;;;;103758;1292;545107;-75
2023/09/05 11:11:22;;;;;;;6.10;2.70;;;;;;;;;;103631;1291;544804;-74
2023/09/05 11:14:54;;;;;;;6.90;2.70;;;;;;;;;;103798;1289;545954;-72
2023/09/05 11:18:31;;;;;;;7.20;2.80;;;;;;;;;;103991;1289;545716;-73
2023/09/05 11:22:10;;;;;;;6.10;2.90;;;;;;;;;;104013;1287;546072;-73
2023/09/05 11:26:00;;;;;;;6.20;2.70;;;;;;;;;;104203;1284;544890;-74
2023/09/05 11:29:27;;;;;;;6.70;3.10;;;;;;;;;;103734;1290;545999;-73
2023/09/05 11:33:01;;;;;;;6.50;2.80;;;;;;;;;;103713;1294;545874;-74
2023/09/05 11:36:44;;;;;;;7.20;2.90;;;;;;;;;;103812;1289;545310;-73
2023/09/05 11:40:13;;;;;;;8.50;3.20;;;;;;;;;;103931;1289;545151;-73
2023/09/05 11:43:56;;;;;;;7.10;3.20;;;;;;;;;;103861;1290;545026;-74
2023/09/05 11:47:33;;;;;;;6.40;3.40;;;;;;;;;;103650;1291;545159;-73
2023/09/05 11:51:14;;;;;;;6.30;2.80;;;;;;;;;;103739;1294;544804;-75
2023/09/05 11:55:16;;;;;;;6.20;3.00;;;;;;;;;;103691;1292;547867;-75
2023/09/05 11:58:21;;;;;;;7.50;3.40;;;;;;;;;;103748;1292;545110;-74
2023/09/05 12:02:11;;;;;;;8.30;3.40;;;;;;;;;;103761;1295;545049;-74
2023/09/05 12:05:43;;;;;;;6.30;3.00;;;;;;;;;;104064;1292;544858;-73
2023/09/05 12:09:15;;;;;;;7.60;3.10;;;;;;;;;;103966;1289;545468;-73
2023/09/05 12:12:55;;;;;;;8.40;3.30;;;;;;;;;;103945;1289;544989;-74
2023/09/05 12:16:44;;;;;;;6.80;3.10;;;;;;;;;;103973;1291;545602;-72
2023/09/05 12:20:15;;;;;;;6.10;2.80;;;;;;;;;;103914;1286;544954;-75
2023/09/05 12:23:52;;;;;;;7.70;3.20;;;;;;;;;;103945;1290;544764;-72
2023/09/05 12:27:30;;;;;;;8.10;3.50;;;;;;;;;;103897;1289;545029;-74
2023/09/05 12:31:09;;;;;;;6.80;2.80;;;;;;;;;;103691;1289;546177;-75
2023/09/05 12:34:47;;;;;;;7.20;2.80;;;;;;;;;;103715;1289;546365;-72
2023/09/05 12:38:22;;;;;;;6.40;2.90;;;;;;;;;;103829;1288;544776;-74
2023/09/05 12:41:56;;;;;;;5.60;3.00;;;;;;;;;;103865;1291;545527;-72
2023/09/05 12:45:44;;;;;;;5.70;2.80;;;;;;;;;;103468;1298;548098;-73
2023/09/05 12:49:16;;;;;;;6.60;3.00;;;;;;;;;;103750;1292;545504;-74
2023/09/05 12:53:02;;;;;;;6.50;3.20;;;;;;;;;;103585;1290;547772;-73
2023/09/05 12:56:33;;;;;;;6.30;3.00;;;;;;;;;;103753;1292;545320;-75
2023/09/05 13:00:12;;;;;;;6.80;3.00;;;;;;;;;;103715;1288;545185;-74
2023/09/05 13:03:46;;;;;;;9.10;4.60;;;;;;;;;;103677;1292;545039;-74
2023/09/05 13:07:24;;;;;;;8.30;3.90;;;;;;;;;;103715;1292;545351;-75
2023/09/05 13:11:01;;;;;;;6.20;3.20;;;;;;;;;;103961;1288;545474;-75
2023/09/05 13:14:38;;;;;;;7.40;3.10;;;;;;;;;;103748;1289;545112;-74
2023/09/05 13:18:19;;;;;;;7.60;3.70;;;;;;;;;;103910;1292;545011;-75
2023/09/05 13:21:53;;;;;;;5.50;3.00;;;;;;;;;;103702;1291;544858;-75
2023/09/05 13:35:59;;;;;;;7.50;3.30;;;;;;;;;;104409;1285;553677;-74
2023/09/05 13:38:47;;;;;;;8.40;3.00;;;;;;;;;;103876;1289;545431;-74
2023/09/05 13:42:30;;;;;;;8.20;3.20;;;;;;;;;;103848;1288;546240;-75
2023/09/05 13:46:08;;;;;;;7.20;3.50;;;;;;;;;;103808;1292;546015;-74
2023/09/05 13:49:45;;;;;;;6.50;3.20;;;;;;;;;;103898;1289;545560;-75
2023/09/05 13:53:23;;;;;;;6.40;3.10;;;;;;;;;;103870;1294;545058;-74
2023/09/05 13:57:02;;;;;;;6.70;3.30;;;;;;;;;;103703;1290;545274;-73
2023/09/05 14:00:36;;;;;;;5.80;3.00;;;;;;;;;;103719;1288;544863;-74
2023/09/05 14:04:23;;;;;;;6.40;3.00;;;;;;;;;;104426;1282;545204;-75
2023/09/05 14:07:52;;;;;;;7.20;3.60;;;;;;;;;;103503;1295;545192;-72
2023/09/05 14:11:30;;;;;;;6.20;3.10;;;;;;;;;;103898;1289;544883;-73
2023/09/05 14:15:09;;;;;;;7.10;3.80;;;;;;;;;;103713;1291;544966;-72
2023/09/05 14:18:48;;;;;;;8.10;3.70;;;;;;;;;;103738;1292;545671;-74
2023/09/05 14:22:23;;;;;;;7.50;3.30;;;;;;;;;;103510;1294;545332;-72
2023/09/05 14:25:56;;;;;;;7.20;3.60;;;;;;;;;;103930;1288;544920;-72
2023/09/05 14:29:39;;;;;;;8.60;3.30;;;;;;;;;;103755;1292;544782;-74
2023/09/05 14:33:17;;;;;;;6.20;3.10;;;;;;;;;;103780;1289;545153;-73
2023/09/05 14:36:54;;;;;;;6.90;3.70;;;;;;;;;;103501;1294;544866;-75
2023/09/05 14:40:37;;;;;;;8.10;3.40;;;;;;;;;;104151;1285;548111;-74
2023/09/05 14:44:10;;;;;;;8.00;3.40;;;;;;;;;;103712;1291;544807;-74
2023/09/05 14:47:47;;;;;;;6.20;3.00;;;;;;;;;;103728;1290;545051;-73
2023/09/05 14:51:24;;;;;;;9.40;4.40;;;;;;;;;;103813;1292;545294;-72
2023/09/05 14:55:10;;;;;;;9.30;4.10;;;;;;;;;;103623;1291;548540;-75
2023/09/05 14:58:39;;;;;;;7.90;3.50;;;;;;;;;;103805;1291;544720;-72
2023/09/05 15:02:16;;;;;;;7.80;3.50;;;;;;;;;;104107;1285;545388;-72
2023/09/05 15:05:54;;;;;;;10.30;5.60;;;;;;;;;;103755;1291;544795;-74
2023/09/05 15:09:32;;;;;;;6.80;3.20;;;;;;;;;;103952;1287;545007;-75
2023/09/05 15:13:16;;;;;;;6.40;3.10;;;;;;;;;;103494;1291;547799;-74
2023/09/05 15:16:44;;;;;;;7.00;3.10;;;;;;;;;;103930;1288;545162;-75
2023/09/05 15:20:23;;;;;;;6.80;3.30;;;;;;;;;;103918;1288;545934;-74
2023/09/05 15:24:06;;;;;;;6.60;3.20;;;;;;;;;;103807;1291;545096;-73
2023/09/05 15:27:43;;;;;;;6.50;2.90;;;;;;;;;;103640;1291;545057;-73
2023/09/05 15:31:20;;;;;;;7.60;3.30;;;;;;;;;;103836;1289;544765;-75
2023/09/05 15:34:57;;;;;;;6.40;3.20;;;;;;;;;;103758;1291;545059;-75
2023/09/05 15:38:35;;;;;;;6.80;3.40;;;;;;;;;;103837;1289;544740;-73
2023/09/05 15:42:13;;;;;;;6.80;3.20;;;;;;;;;;103706;1291;545098;-75
2023/09/05 15:45:54;;;;;;;7.10;3.40;;;;;;;;;;104387;1282;544925;-72
2023/09/05 15:49:27;;;;;;;7.70;3.60;;;;;;;;;;103788;1289;544936;-75
2023/09/05 15:53:06;;;;;;;7.20;3.60;;;;;;;;;;103946;1290;545031;-75
2023/09/05 15:56:38;;;;;;;6.90;3.70;;;;;;;;;;103860;1288;544809;-76
2023/09/05 16:00:27;;;;;;;8.40;4.00;;;;;;;;;;103585;1292;547928;-76
2023/09/05 16:03:58;;;;;;;10.90;4.00;;;;;;;;;;103715;1290;544977;-74
2023/09/05 16:07:36;;;;;;;7.70;4.10;;;;;;;;;;104051;1292;544990;-76
2023/09/05 16:11:16;;;;;;;9.60;4.10;;;;;;;;;;103978;1286;546008;-76
2023/09/05 16:14:51;;;;;;;8.40;4.30;;;;;;;;;;103833;1288;545784;-74
2023/09/05 16:18:28;;;;;;;8.70;4.20;;;;;;;;;;103720;1295;544803;-74
2023/09/05 16:22:06;;;;;;;8.30;3.80;;;;;;;;;;103713;1292;545662;-74
2023/09/05 16:25:43;;;;;;;7.00;3.20;;;;;;;;;;103574;1295;544928;-74
2023/09/05 16:29:21;;;;;;;7.10;3.70;;;;;;;;;;104364;1283;546239;-76
2023/09/05 16:32:58;;;;;;;8.80;3.80;;;;;;;;;;103655;1291;544712;-75
2023/09/05 16:36:36;;;;;;;8.60;4.00;;;;;;;;;;103759;1289;544806;-75
2023/09/05 16:40:15;;;;;;;8.80;4.50;;;;;;;;;;103787;1289;544783;-75
2023/09/05 16:43:51;;;;;;;7.40;4.20;;;;;;;;;;104132;1289;545031;-76
2023/09/05 16:47:28;;;;;;;8.60;4.40;;;;;;;;;;103696;1290;544776;-75
2023/09/05 16:51:10;;;;;;;8.70;4.20;;;;;;;;;;103772;1292;545069;-76
2023/09/05 16:54:43;;;;;;;9.30;4.30;;;;;;;;;;103695;1289;545648;-75
2023/09/05 16:58:21;;;;;;;8.50;3.90;;;;;;;;;;103744;1291;545740;-74
2023/09/05 17:02:00;;;;;;;8.20;4.10;;;;;;;;;;103722;1292;544943;-74
2023/09/05 17:05:39;;;;;;;8.10;4.20;;;;;;;;;;103617;1292;545255;-75
2023/09/05 17:09:13;;;;;;;9.30;4.00;;;;;;;;;;103623;1292;545516;-74
2023/09/05 17:12:51;;;;;;;9.40;4.10;;;;;;;;;;103813;1292;544880;-74
2023/09/05 17:16:28;;;;;;;9.10;3.90;;;;;;;;;;103731;1291;544970;-75
2023/09/05 17:20:25;;;;;;;10.10;4.20;;;;;;;;;;103761;1292;547786;-76
2023/09/05 17:23:43;;;;;;;8.50;3.80;;;;;;;;;;103898;1288;545437;-74
2023/09/05 17:27:20;;;;;;;9.80;4.00;;;;;;;;;;103796;1289;544715;-74
2023/09/05 17:30:58;;;;;;;8.70;4.20;;;;;;;;;;103552;1305;544976;-74
2023/09/05 17:34:31;;;;;;;9.20;4.20;;;;;;;;;;103897;1289;544775;-74
2023/09/05 17:38:10;;;;;;;10.00;4.40;;;;;;;;;;103914;1292;545661;-74
2023/09/05 17:41:53;;;;;;;8.00;4.10;;;;;;;;;;105807;1288;545406;-78
2023/09/05 17:45:26;;;;;;;9.20;4.20;;;;;;;;;;104067;1289;544950;-74
2023/09/05 17:49:05;;;;;;;8.20;4.20;;;;;;;;;;103885;1292;545944;-72
2023/09/05 17:52:50;;;;;;;7.70;4.10;;;;;;;;;;103931;1300;547893;-75
2023/09/05 17:56:25;;;;;;;10.20;4.60;;;;;;;;;;104411;1283;546038;-76
2023/09/05 18:00:03;;;;;;;10.10;5.20;;;;;;;;;;103915;1288;545940;-74
2023/09/05 18:03:40;;;;;;;10.00;5.00;;;;;;;;;;103563;1300;545647;-74
2023/09/05 18:07:17;;;;;;;9.70;5.10;;;;;;;;;;103779;1289;544936;-75
2023/09/05 18:11:03;;;;;;;9.00;5.00;;;;;;;;;;103425;1292;545713;-76
2023/09/05 18:14:36;;;;;;;8.80;4.60;;;;;;;;;;103803;1290;545361;-74
2023/09/05 18:18:11;;;;;;;8.30;4.40;;;;;;;;;;103912;1295;544916;-74
2023/09/05 18:21:47;;;;;;;11.40;4.30;;;;;;;;;;103720;1292;544816;-76
2023/09/05 18:25:27;;;;;;;9.10;5.00;;;;;;;;;;103710;1289;544991;-74
2023/09/05 18:29:02;;;;;;;10.30;4.90;;;;;;;;;;103815;1291;544895;-75
2023/09/05 18:32:40;;;;;;;9.20;4.90;;;;;;;;;;104235;1288;545236;-77
2023/09/05 18:36:19;;;;;;;8.70;4.70;;;;;;;;;;103625;1293;545095;-74
2023/09/05 18:40:00;;;;;;;10.30;4.70;;;;;;;;;;104263;1285;548697;-74
2023/09/05 18:43:34;;;;;;;11.20;4.80;;;;;;;;;;103735;1294;544865;-77
2023/09/05 18:47:15;;;;;;;8.70;4.30;;;;;;;;;;103501;1292;548084;-77
2023/09/05 18:50:44;;;;;;;7.90;4.60;;;;;;;;;;103862;1289;545843;-77
2023/09/05 18:54:24;;;;;;;9.60;5.20;;;;;;;;;;103687;1292;545043;-74
2023/09/05 18:58:02;;;;;;;11.60;4.60;;;;;;;;;;104107;1288;544918;-75
2023/09/05 19:01:39;;;;;;;10.60;5.90;;;;;;;;;;103876;1290;545950;-76
2023/09/05 19:05:19;;;;;;;13.10;6.50;;;;;;;;;;103767;1291;545605;-76
2023/09/05 19:08:55;;;;;;;15.00;8.10;;;;;;;;;;103600;1291;544872;-74
2023/09/05 19:12:32;;;;;;;12.70;7.00;;;;;;;;;;103676;1291;544930;-74
2023/09/05 19:16:09;;;;;;;14.50;8.20;;;;;;;;;;103830;1292;544968;-76
2023/09/05 19:19:47;;;;;;;11.70;6.50;;;;;;;;;;103757;1291;544769;-76
2023/09/05 19:23:24;;;;;;;11.30;5.70;;;;;;;;;;103731;1294;545726;-75
2023/09/05 19:27:02;;;;;;;10.80;5.40;;;;;;;;;;103982;1292;545038;-77
2023/09/05 19:30:38;;;;;;;10.90;5.60;;;;;;;;;;103821;1290;545766;-74
2023/09/05 19:34:22;;;;;;;10.80;5.40;;;;;;;;;;103838;1290;545477;-75
2023/09/05 19:37:58;;;;;;;10.60;5.40;;;;;;;;;;104156;1298;544808;-74
2023/09/05 19:41:37;;;;;;;11.50;5.30;;;;;;;;;;103756;1295;545052;-76
2023/09/05 19:45:13;;;;;;;10.40;5.20;;;;;;;;;;103810;1295;546298;-75
2023/09/05 19:48:50;;;;;;;15.20;7.90;;;;;;;;;;103841;1300;545004;-77
2023/09/05 19:52:29;;;;;;;16.60;7.70;;;;;;;;;;103579;1291;544826;-74
2023/09/05 19:56:06;;;;;;;12.30;7.10;;;;;;;;;;103700;1291;544782;-74
2023/09/05 19:59:43;;;;;;;13.10;7.90;;;;;;;;;;103925;1292;544935;-74
2023/09/05 20:03:20;;;;;;;17.20;8.50;;;;;;;;;;103764;1289;544764;-74
2023/09/05 20:06:58;;;;;;;12.40;7.90;;;;;;;;;;103848;1289;545540;-74
2023/09/05 20:10:35;;;;;;;11.00;7.50;;;;;;;;;;103745;1293;544960;-75
2023/09/05 20:14:13;;;;;;;10.20;6.40;;;;;;;;;;103971;1290;544848;-76
2023/09/05 20:17:51;;;;;;;13.50;7.20;;;;;;;;;;104063;1286;545072;-74
2023/09/05 20:21:28;;;;;;;22.20;8.40;;;;;;;;;;104149;1289;544808;-76
2023/09/05 20:25:10;;;;;;;14.60;7.20;;;;;;;;;;103838;1289;544851;-77
2023/09/05 20:28:43;;;;;;;15.40;8.10;;;;;;;;;;103689;1292;545551;-75
2023/09/05 20:32:20;;;;;;;17.40;8.00;;;;;;;;;;103761;1295;545289;-77
2023/09/05 20:36:04;;;;;;;14.20;7.70;;;;;;;;;;103623;1291;546377;-77
2023/09/05 20:39:35;;;;;;;15.60;7.50;;;;;;;;;;103707;1294;545337;-75
2023/09/05 20:43:28;;;;;;;13.50;7.00;;;;;;;;;;103971;1286;547779;-77
2023/09/05 20:46:51;;;;;;;13.90;6.50;;;;;;;;;;103460;1293;545161;-74
2023/09/05 20:50:28;;;;;;;11.30;6.20;;;;;;;;;;103746;1289;545620;-74
2023/09/05 20:54:01;;;;;;;13.00;7.20;;;;;;;;;;103759;1292;544878;-75
2023/09/05 20:57:40;;;;;;;12.90;7.70;;;;;;;;;;103880;1289;544961;-74
2023/09/05 21:01:24;;;;;;;13.20;7.30;;;;;;;;;;103689;1303;544785;-74
2023/09/05 21:05:00;;;;;;;13.00;7.40;;;;;;;;;;103686;1289;545943;-77
2023/09/05 21:08:40;;;;;;;12.50;7.50;;;;;;;;;;103643;1294;544776;-75
2023/09/05 21:12:14;;;;;;;13.70;7.00;;;;;;;;;;104530;1282;545108;-76
2023/09/05 21:15:54;;;;;;;12.20;7.10;;;;;;;;;;103984;1295;544758;-76
2023/09/05 21:19:33;;;;;;;12.50;6.90;;;;;;;;;;103648;1292;544925;-74
2023/09/05 21:23:04;;;;;;;11.70;6.40;;;;;;;;;;104073;1286;546634;-77
2023/09/05 21:26:46;;;;;;;12.60;6.70;;;;;;;;;;103821;1292;544730;-74
2023/09/05 21:30:24;;;;;;;11.80;7.60;;;;;;;;;;103614;1295;544921;-75